Terminal Aerodrome Forecast
Issued by NWS Cleveland, OH

Home | Current Version | Previous Version | Graphics & Text | Print | Product List | Glossary On
Versions: 1 2 3 4 5 6 7 8 9 10 11 12 13 14 15
000
FTUS41 KCLE 021123
TAFCAK
TAF
KCAK 021123Z 0212/0312 03004KT 5SM BR SCT012 BKN045
      TEMPO 0212/0213 2SM BR BKN012
     FM021300 04006KT P6SM BKN045
      TEMPO 0213/0214 5SM BR BKN025
     FM021800 01008KT P6SM SCT045
     FM030100 01004KT P6SM SKC
     FM030500 05006KT P6SM SKC=

USA.gov is the U.S. government's official web portal to all federal, state and local government web resources and services.